createdAt,value
2023-09-29T00:00:18.631Z,13.43
2023-09-29T00:02:47.813Z,13.57
2023-09-29T00:05:18.862Z,13.37
2023-09-29T00:07:47.464Z,13.53
2023-09-29T00:10:18.401Z,13.27
2023-09-29T00:12:47.646Z,13.50
2023-09-29T00:15:16.339Z,14.27
2023-09-29T00:17:44.436Z,15.73
2023-09-29T00:20:18.139Z,14.00
2023-09-29T00:22:46.139Z,13.53
2023-09-29T00:25:14.116Z,13.73
2023-09-29T00:27:43.413Z,13.70
2023-09-29T00:30:13.131Z,14.07
2023-09-29T00:32:45.569Z,13.60
2023-09-29T00:35:22.556Z,14.00
2023-09-29T00:37:50.516Z,13.77
2023-09-29T00:40:18.716Z,13.77
2023-09-29T00:42:50.025Z,13.93
2023-09-29T00:45:20.872Z,13.80
2023-09-29T00:47:50.930Z,14.20
2023-09-29T00:50:21.202Z,13.53
2023-09-29T00:52:52.229Z,13.97
2023-09-29T00:55:23.697Z,13.57
2023-09-29T00:57:53.074Z,13.37
2023-09-29T01:00:31.203Z,13.50
2023-09-29T01:02:59.680Z,14.37
2023-09-29T01:05:28.073Z,13.93
2023-09-29T01:07:56.307Z,13.30
2023-09-29T01:10:25.255Z,14.07
2023-09-29T01:12:55.205Z,13.77
2023-09-29T01:15:23.267Z,13.73
2023-09-29T01:17:51.299Z,13.27
2023-09-29T01:20:26.353Z,13.40
2023-09-29T01:22:54.478Z,13.43
2023-09-29T01:25:23.930Z,13.67
2023-09-29T01:27:53.205Z,12.60
2023-09-29T01:30:21.288Z,14.37
2023-09-29T01:32:50.412Z,13.40
2023-09-29T01:35:19.155Z,13.77
2023-09-29T01:37:47.754Z,13.57
2023-09-29T01:40:15.883Z,13.70
2023-09-29T01:42:47.128Z,14.00
2023-09-29T01:45:15.219Z,12.90
2023-09-29T01:47:44.580Z,13.23
2023-09-29T01:50:15.938Z,13.23
2023-09-29T01:52:44.157Z,13.33
2023-09-29T01:55:15.694Z,13.43
2023-09-29T01:57:45.620Z,13.30
2023-09-29T02:00:16.353Z,13.10
2023-09-29T02:02:45.950Z,12.93
2023-09-29T02:05:14.398Z,12.50
2023-09-29T02:07:42.356Z,13.27
2023-09-29T02:10:10.909Z,13.47
2023-09-29T02:12:48.188Z,13.67
2023-09-29T02:15:19.202Z,12.93
2023-09-29T02:17:49.237Z,12.53
2023-09-29T02:20:21.482Z,12.93
2023-09-29T02:22:50.181Z,13.03
2023-09-29T02:25:18.584Z,12.87
2023-09-29T02:27:48.011Z,13.27
2023-09-29T02:30:16.087Z,12.80
2023-09-29T02:32:45.975Z,13.90
2023-09-29T02:35:13.920Z,13.13
2023-09-29T02:37:42.418Z,12.80
2023-09-29T02:40:13.203Z,13.63
2023-09-29T02:42:41.645Z,13.27
2023-09-29T02:45:10.620Z,13.70
2023-09-29T02:47:40.436Z,13.37
2023-09-29T02:50:11.320Z,14.83
2023-09-29T02:52:40.314Z,14.97
2023-09-29T02:55:13.761Z,13.13
2023-09-29T02:57:43.674Z,14.43
2023-09-29T03:00:16.821Z,13.40
2023-09-29T03:02:45.026Z,13.50
2023-09-29T03:05:15.503Z,13.33
2023-09-29T03:07:44.562Z,13.40
2023-09-29T03:10:14.548Z,12.90
2023-09-29T03:12:43.856Z,13.53
2023-09-29T03:15:14.895Z,13.60
2023-09-29T03:17:42.961Z,13.07
2023-09-29T03:20:12.417Z,11.93
2023-09-29T03:22:42.118Z,13.80
2023-09-29T03:25:11.715Z,12.77
2023-09-29T03:27:41.068Z,12.73
2023-09-29T03:30:11.060Z,13.33
2023-09-29T03:32:39.286Z,13.07
2023-09-29T03:35:10.121Z,13.50
2023-09-29T03:37:40.840Z,13.13
2023-09-29T03:40:12.499Z,12.83
2023-09-29T03:42:42.770Z,13.33
2023-09-29T03:45:12.311Z,13.00
2023-09-29T03:47:40.669Z,13.33
2023-09-29T03:50:10.105Z,13.30
2023-09-29T03:52:38.272Z,13.33
2023-09-29T03:55:07.283Z,13.37
2023-09-29T03:57:38.766Z,13.63
2023-09-29T04:00:13.190Z,12.80
2023-09-29T04:02:42.626Z,13.03
2023-09-29T04:05:11.477Z,12.90
2023-09-29T04:07:41.205Z,13.30
2023-09-29T04:10:10.863Z,12.17
2023-09-29T04:12:41.770Z,13.67
2023-09-29T04:15:11.054Z,12.93
2023-09-29T04:17:39.719Z,12.83
2023-09-29T04:20:09.023Z,12.97
2023-09-29T04:22:37.049Z,12.93
2023-09-29T04:25:06.035Z,13.33
2023-09-29T04:27:34.032Z,12.70
2023-09-29T04:30:04.870Z,12.87
2023-09-29T04:32:33.122Z,13.00
2023-09-29T04:35:01.173Z,11.73
2023-09-29T04:37:29.131Z,12.90
2023-09-29T04:39:57.856Z,12.50
2023-09-29T04:42:25.768Z,12.77
2023-09-29T04:44:53.663Z,12.67
2023-09-29T04:47:23.638Z,13.63
2023-09-29T04:49:51.594Z,12.50
2023-09-29T04:52:19.703Z,13.30
2023-09-29T04:54:47.721Z,13.07
2023-09-29T04:57:15.671Z,12.77
2023-09-29T04:59:44.074Z,13.00
2023-09-29T05:02:12.059Z,13.03
2023-09-29T05:04:41.611Z,13.17
2023-09-29T05:07:09.576Z,13.07
2023-09-29T05:09:37.826Z,12.33
2023-09-29T05:12:06.851Z,12.83
2023-09-29T05:14:34.852Z,13.57
2023-09-29T05:17:02.809Z,15.20
2023-09-29T05:19:30.751Z,13.73
2023-09-29T05:22:00.717Z,13.10
2023-09-29T05:24:28.692Z,12.47
2023-09-29T05:26:56.683Z,13.23
2023-09-29T05:29:24.610Z,12.63
2023-09-29T05:31:52.576Z,13.50
2023-09-29T05:34:20.555Z,12.57
2023-09-29T05:36:48.527Z,13.17
2023-09-29T05:39:18.533Z,13.50
2023-09-29T05:41:46.422Z,13.00
2023-09-29T05:44:14.361Z,12.57
2023-09-29T05:46:42.368Z,12.73
2023-09-29T05:49:11.026Z,13.87
2023-09-29T05:51:39.048Z,13.63
2023-09-29T05:54:07.218Z,12.40
2023-09-29T05:56:36.589Z,12.33
2023-09-29T05:59:05.137Z,12.13
2023-09-29T06:01:33.038Z,11.67
2023-09-29T06:04:01.223Z,11.77
2023-09-29T06:06:29.495Z,11.97
2023-09-29T06:08:57.481Z,11.40
2023-09-29T06:11:25.397Z,11.13
2023-09-29T06:13:54.768Z,11.43
2023-09-29T06:16:23.722Z,10.87
2023-09-29T06:18:52.227Z,11.73
2023-09-29T06:21:20.222Z,11.13
2023-09-29T06:23:48.094Z,10.70
2023-09-29T06:26:16.037Z,11.77
2023-09-29T06:28:44.048Z,10.50
2023-09-29T06:31:13.394Z,10.77
2023-09-29T06:33:41.540Z,11.10
2023-09-29T06:36:09.641Z,10.70
2023-09-29T06:38:37.672Z,10.67
2023-09-29T06:41:05.631Z,10.33
2023-09-29T06:43:33.586Z,10.07
2023-09-29T06:46:02.430Z,10.23
2023-09-29T06:48:32.010Z,10.10
2023-09-29T06:51:01.675Z,10.97
2023-09-29T06:53:32.260Z,10.13
2023-09-29T06:56:00.709Z,10.37
2023-09-29T06:58:28.945Z,10.40
2023-09-29T07:01:01.265Z,9.47
2023-09-29T07:03:32.658Z,9.83
2023-09-29T07:06:02.143Z,9.00
2023-09-29T07:08:30.662Z,9.27
2023-09-29T07:10:59.033Z,8.30
2023-09-29T07:13:27.056Z,9.40
2023-09-29T07:15:54.908Z,8.60
2023-09-29T07:18:23.222Z,8.60
2023-09-29T07:20:54.765Z,9.10
2023-09-29T07:23:24.083Z,8.87
2023-09-29T07:25:52.882Z,9.33
2023-09-29T07:28:21.924Z,8.70
2023-09-29T07:30:50.245Z,8.43
2023-09-29T07:33:18.339Z,8.07
2023-09-29T07:35:47.138Z,8.53
2023-09-29T07:38:18.870Z,9.13
2023-09-29T07:40:47.280Z,8.60
2023-09-29T07:43:15.177Z,7.90
2023-09-29T07:45:44.001Z,8.07
2023-09-29T07:48:13.038Z,7.87
2023-09-29T07:50:41.149Z,8.13
2023-09-29T07:53:10.073Z,8.37
2023-09-29T07:55:39.889Z,7.63
2023-09-29T07:58:08.198Z,7.30
2023-09-29T08:00:36.074Z,7.43
2023-09-29T08:03:04.118Z,8.30
2023-09-29T08:05:32.449Z,8.40
2023-09-29T08:08:00.466Z,6.90
2023-09-29T08:10:28.414Z,7.45
2023-09-29T08:12:57.792Z,7.13
2023-09-29T08:15:26.005Z,7.67
2023-09-29T08:17:54.212Z,7.77
2023-09-29T08:20:22.170Z,7.27
2023-09-29T08:22:51.416Z,7.30
2023-09-29T08:25:20.608Z,7.40
2023-09-29T08:27:48.907Z,6.90
2023-09-29T08:30:18.846Z,7.17
2023-09-29T08:32:47.047Z,7.43
2023-09-29T08:35:16.127Z,7.53
2023-09-29T08:37:44.917Z,6.50
2023-09-29T08:40:14.889Z,6.50
2023-09-29T08:42:46.596Z,6.90
2023-09-29T08:45:14.691Z,7.20
2023-09-29T08:47:44.061Z,7.20
2023-09-29T08:50:13.190Z,6.83
2023-09-29T08:52:45.825Z,7.80
2023-09-29T08:55:14.968Z,7.03
2023-09-29T08:57:44.796Z,6.63
2023-09-29T09:00:15.183Z,8.03
2023-09-29T09:02:45.836Z,6.97
2023-09-29T09:05:16.016Z,6.40
2023-09-29T09:07:44.810Z,6.93
2023-09-29T09:10:26.964Z,6.43
2023-09-29T09:12:59.561Z,6.30
2023-09-29T09:15:27.744Z,7.07
2023-09-29T09:17:57.578Z,6.53
2023-09-29T09:20:26.149Z,6.70
2023-09-29T09:23:01.102Z,6.27
2023-09-29T09:25:33.046Z,6.43
2023-09-29T09:28:01.337Z,6.90
2023-09-29T09:30:29.351Z,6.83
2023-09-29T09:32:58.831Z,7.23
2023-09-29T09:35:28.775Z,7.20
2023-09-29T09:37:56.833Z,6.50
2023-09-29T09:40:25.878Z,6.30
2023-09-29T09:42:54.482Z,6.60
2023-09-29T09:45:26.881Z,8.33
2023-09-29T09:48:00.306Z,6.47
2023-09-29T09:50:30.254Z,6.40
2023-09-29T09:53:01.005Z,6.60
2023-09-29T09:55:35.441Z,6.40
2023-09-29T09:58:07.716Z,6.03
2023-09-29T10:00:35.778Z,6.50
2023-09-29T10:03:12.593Z,6.37
2023-09-29T10:05:43.141Z,6.43
2023-09-29T10:08:13.889Z,6.47
2023-09-29T10:10:43.018Z,5.73
2023-09-29T10:13:13.661Z,6.00
2023-09-29T10:15:41.678Z,5.63
2023-09-29T10:18:19.008Z,5.37
2023-09-29T10:20:50.670Z,6.03
2023-09-29T10:23:19.303Z,6.63
2023-09-29T10:25:58.661Z,6.83
2023-09-29T10:28:32.696Z,7.37
2023-09-29T10:31:08.254Z,6.40
2023-09-29T10:33:53.617Z,5.77
2023-09-29T10:36:24.447Z,5.67
2023-09-29T10:38:55.559Z,5.90
2023-09-29T10:41:34.923Z,5.50
2023-09-29T10:44:05.499Z,5.70
2023-09-29T10:46:33.777Z,5.60
2023-09-29T10:49:03.293Z,4.90
2023-09-29T10:51:33.067Z,5.47
2023-09-29T10:54:08.196Z,5.40
2023-09-29T10:56:37.987Z,5.57
2023-09-29T10:59:07.140Z,5.73
2023-09-29T11:01:35.670Z,6.13
2023-09-29T11:04:06.417Z,5.40
2023-09-29T11:06:42.177Z,5.50
2023-09-29T11:09:11.483Z,5.13
2023-09-29T11:11:40.584Z,4.97
2023-09-29T11:14:08.766Z,5.40
2023-09-29T11:16:38.097Z,4.67
2023-09-29T11:19:13.139Z,5.37
2023-09-29T11:21:42.340Z,5.33
2023-09-29T11:24:12.075Z,5.73
2023-09-29T11:26:41.954Z,5.53
2023-09-29T11:29:10.640Z,5.70
2023-09-29T11:31:40.872Z,5.50
2023-09-29T11:34:10.816Z,5.13
2023-09-29T11:36:38.778Z,5.40
2023-09-29T11:39:08.974Z,5.07
2023-09-29T11:41:37.157Z,5.00
2023-09-29T11:44:05.498Z,4.80
2023-09-29T11:46:33.558Z,4.97
2023-09-29T11:49:01.594Z,5.40
2023-09-29T11:51:30.938Z,5.17
2023-09-29T11:53:59.593Z,5.30
2023-09-29T11:56:27.507Z,5.43
2023-09-29T11:58:56.066Z,5.53
2023-09-29T12:01:24.136Z,5.20
2023-09-29T12:03:52.703Z,5.17
2023-09-29T12:06:20.664Z,5.03
2023-09-29T12:08:50.060Z,5.97
2023-09-29T12:11:20.696Z,5.53
2023-09-29T12:13:49.994Z,5.67
2023-09-29T12:16:18.146Z,5.83
2023-09-29T12:18:46.405Z,5.83
2023-09-29T12:21:14.626Z,5.73
2023-09-29T12:23:43.056Z,5.50
2023-09-29T12:26:12.525Z,5.97
2023-09-29T12:28:40.615Z,5.80
2023-09-29T12:31:15.955Z,5.67
2023-09-29T12:33:46.208Z,5.57
2023-09-29T12:36:14.790Z,5.67
2023-09-29T12:38:44.245Z,5.47
2023-09-29T12:41:14.871Z,6.13
2023-09-29T12:43:44.063Z,5.43
2023-09-29T12:46:12.004Z,6.70
2023-09-29T12:48:40.183Z,5.17
2023-09-29T12:51:08.222Z,4.97
2023-09-29T12:53:36.520Z,4.87
2023-09-29T12:56:05.492Z,5.23
2023-09-29T12:58:35.286Z,5.17
2023-09-29T13:01:03.678Z,5.97
2023-09-29T13:03:31.820Z,4.80
2023-09-29T13:06:01.480Z,5.40
2023-09-29T13:08:29.585Z,5.43
2023-09-29T13:10:57.772Z,5.43
2023-09-29T13:13:26.610Z,5.27
2023-09-29T13:15:55.955Z,5.77
2023-09-29T13:18:24.683Z,5.30
2023-09-29T13:20:52.851Z,5.60
2023-09-29T13:23:22.775Z,5.93
2023-09-29T13:25:52.714Z,5.57
2023-09-29T13:28:20.863Z,5.63
2023-09-29T13:30:54.663Z,5.53
2023-09-29T13:33:28.235Z,5.37
2023-09-29T13:35:57.655Z,6.13
2023-09-29T13:38:25.594Z,5.70
2023-09-29T13:40:54.549Z,5.83
2023-09-29T13:43:23.169Z,5.47
2023-09-29T13:45:51.235Z,5.87
2023-09-29T13:48:23.267Z,5.40
2023-09-29T13:50:53.417Z,5.80
2023-09-29T13:53:21.452Z,6.50
2023-09-29T13:55:50.571Z,5.93
2023-09-29T13:58:18.527Z,5.67
2023-09-29T14:00:50.150Z,5.90
2023-09-29T14:03:20.718Z,5.40
2023-09-29T14:05:48.913Z,6.07
2023-09-29T14:08:18.416Z,6.17
2023-09-29T14:10:46.384Z,5.60
2023-09-29T14:13:14.376Z,5.77
2023-09-29T14:15:42.281Z,5.43
2023-09-29T14:18:10.257Z,5.23
2023-09-29T14:20:38.524Z,5.37
2023-09-29T14:23:08.238Z,5.40
2023-09-29T14:25:37.650Z,5.30
2023-09-29T14:28:07.221Z,5.43
2023-09-29T14:30:37.475Z,5.77
2023-09-29T14:33:05.942Z,5.17
2023-09-29T14:35:46.548Z,5.80
2023-09-29T14:38:17.141Z,6.03
2023-09-29T14:40:46.519Z,5.50
2023-09-29T14:43:14.757Z,5.73
2023-09-29T14:45:42.711Z,5.80
2023-09-29T14:48:11.386Z,5.63
2023-09-29T14:50:42.299Z,5.77
2023-09-29T14:53:10.251Z,5.93
2023-09-29T14:55:39.823Z,5.70
2023-09-29T14:58:09.751Z,5.77
2023-09-29T15:00:38.030Z,5.37
2023-09-29T15:03:06.597Z,5.80
2023-09-29T15:05:36.856Z,5.40
2023-09-29T15:08:05.644Z,5.50
2023-09-29T15:10:33.669Z,5.40
2023-09-29T15:13:01.969Z,6.13
2023-09-29T15:15:31.443Z,6.70
2023-09-29T15:18:00.856Z,15.07
2023-09-29T15:20:29.335Z,6.53
2023-09-29T15:22:57.302Z,5.80
2023-09-29T15:25:25.388Z,5.20
2023-09-29T15:27:53.461Z,5.50
2023-09-29T15:30:21.635Z,6.10
2023-09-29T15:32:51.125Z,6.10
2023-09-29T15:35:19.149Z,5.93
2023-09-29T15:37:47.510Z,6.10
2023-09-29T15:40:15.448Z,7.10
2023-09-29T15:42:43.506Z,6.80
2023-09-29T15:45:12.646Z,6.83
2023-09-29T15:47:40.592Z,6.60
2023-09-29T15:50:10.734Z,6.77
2023-09-29T15:52:38.925Z,6.63
2023-09-29T15:55:07.546Z,7.30
2023-09-29T15:57:35.725Z,7.00
2023-09-29T16:00:04.601Z,6.97
2023-09-29T16:02:37.518Z,7.80
2023-09-29T16:05:05.857Z,6.77
2023-09-29T16:07:35.130Z,6.77
2023-09-29T16:10:03.183Z,6.70
2023-09-29T16:12:31.453Z,7.37
2023-09-29T16:14:59.548Z,7.20
2023-09-29T16:17:27.667Z,6.90
2023-09-29T16:19:56.214Z,6.87
2023-09-29T16:22:24.238Z,6.83
2023-09-29T16:24:53.521Z,18.77
2023-09-29T16:27:22.966Z,8.77
2023-09-29T16:29:53.050Z,8.10
2023-09-29T16:32:31.911Z,7.07
2023-09-29T16:35:02.056Z,9.20
2023-09-29T16:37:30.372Z,7.83
2023-09-29T16:40:03.605Z,8.93
2023-09-29T16:42:34.349Z,8.37
2023-09-29T16:45:02.333Z,9.13
2023-09-29T16:47:30.537Z,8.30
2023-09-29T16:49:58.732Z,7.03
2023-09-29T16:52:26.664Z,7.20
2023-09-29T16:54:54.601Z,7.73
2023-09-29T16:57:25.072Z,8.10
2023-09-29T16:59:53.319Z,8.00
2023-09-29T17:02:21.354Z,9.23
2023-09-29T17:04:50.377Z,9.17
2023-09-29T17:07:18.567Z,7.63
2023-09-29T17:09:47.561Z,9.00
2023-09-29T17:12:15.433Z,9.67
2023-09-29T17:14:44.732Z,7.80
2023-09-29T17:17:12.605Z,8.53
2023-09-29T17:19:40.814Z,8.43
2023-09-29T17:22:10.065Z,9.67
2023-09-29T17:24:38.037Z,7.80
2023-09-29T17:27:06.058Z,8.63
2023-09-29T17:29:34.620Z,10.00
2023-09-29T17:32:04.451Z,15.43
2023-09-29T17:34:32.625Z,9.97
2023-09-29T17:37:00.833Z,9.20
2023-09-29T17:39:28.801Z,9.97
2023-09-29T17:41:56.806Z,9.77
2023-09-29T17:44:24.649Z,9.40
2023-09-29T17:46:52.579Z,9.23
2023-09-29T17:49:22.065Z,8.70
2023-09-29T17:51:50.073Z,8.87
2023-09-29T17:54:18.109Z,9.03
2023-09-29T17:56:46.513Z,9.50
2023-09-29T17:59:14.450Z,8.70
2023-09-29T18:01:42.466Z,8.90
2023-09-29T18:04:10.609Z,9.50
2023-09-29T18:06:40.799Z,9.50
2023-09-29T18:09:10.035Z,10.00
2023-09-29T18:11:38.485Z,10.30
2023-09-29T18:14:06.473Z,10.47
2023-09-29T18:16:34.637Z,10.50
2023-09-29T18:19:05.614Z,10.47
2023-09-29T18:21:34.445Z,10.47
2023-09-29T18:24:06.585Z,10.50
2023-09-29T18:26:34.870Z,10.60
2023-09-29T18:29:02.798Z,9.50
2023-09-29T18:31:30.699Z,10.77
2023-09-29T18:33:58.709Z,11.87
2023-09-29T18:36:27.001Z,10.10
2023-09-29T18:38:55.370Z,9.97
2023-09-29T18:41:24.950Z,9.90
2023-09-29T18:43:53.763Z,10.40
2023-09-29T18:46:22.542Z,9.10
2023-09-29T18:48:50.714Z,9.97
2023-09-29T18:51:19.719Z,9.20
2023-09-29T18:53:47.935Z,9.93
2023-09-29T18:56:19.026Z,9.93
2023-09-29T18:58:48.398Z,9.03
2023-09-29T19:01:16.364Z,8.87
2023-09-29T19:03:44.401Z,9.03
2023-09-29T19:06:12.879Z,8.00
2023-09-29T19:08:41.102Z,9.03
2023-09-29T19:11:18.740Z,9.73
2023-09-29T19:13:48.444Z,10.00
2023-09-29T19:16:16.941Z,8.87
2023-09-29T19:18:45.603Z,10.57
2023-09-29T19:21:19.687Z,10.33
2023-09-29T19:23:52.226Z,9.53
2023-09-29T19:26:20.145Z,9.33
2023-09-29T19:28:49.709Z,8.77
2023-09-29T19:31:17.921Z,8.90
2023-09-29T19:33:46.052Z,8.77
2023-09-29T19:36:14.025Z,9.30
2023-09-29T19:38:42.032Z,9.53
2023-09-29T19:41:13.332Z,7.80
2023-09-29T19:43:41.364Z,8.23
2023-09-29T19:46:11.622Z,7.57
2023-09-29T19:48:40.012Z,7.40
2023-09-29T19:51:14.057Z,7.47
2023-09-29T19:53:42.954Z,8.73
2023-09-29T19:56:13.054Z,7.30
2023-09-29T19:58:44.328Z,9.67
2023-09-29T20:01:14.257Z,6.50
2023-09-29T20:03:42.932Z,6.73
2023-09-29T20:06:10.954Z,5.93
2023-09-29T20:08:39.342Z,5.90
2023-09-29T20:11:10.473Z,6.47
2023-09-29T20:13:39.059Z,6.33
2023-09-29T20:16:07.124Z,6.53
2023-09-29T20:18:36.417Z,6.00
2023-09-29T20:21:04.774Z,5.80
2023-09-29T20:23:32.944Z,5.77
2023-09-29T20:26:00.876Z,6.60
2023-09-29T20:28:28.982Z,6.70
2023-09-29T20:30:57.337Z,6.60
2023-09-29T20:33:25.346Z,5.80
2023-09-29T20:35:54.728Z,5.87
2023-09-29T20:38:22.949Z,5.70
2023-09-29T20:40:50.954Z,5.30
2023-09-29T20:43:19.034Z,5.40
2023-09-29T20:45:47.758Z,4.90
2023-09-29T20:48:16.315Z,4.97
2023-09-29T20:50:44.444Z,4.97
2023-09-29T20:53:14.775Z,4.63
2023-09-29T20:55:43.364Z,5.17
2023-09-29T20:58:11.650Z,5.00
2023-09-29T21:00:39.588Z,4.97
2023-09-29T21:03:10.678Z,4.70
2023-09-29T21:05:38.822Z,4.50
2023-09-29T21:08:07.152Z,4.60
2023-09-29T21:10:37.524Z,4.83
2023-09-29T21:13:05.574Z,4.60
2023-09-29T21:15:33.602Z,5.00
2023-09-29T21:18:01.595Z,4.90
2023-09-29T21:20:29.670Z,4.83
2023-09-29T21:22:57.599Z,4.33
2023-09-29T21:25:25.702Z,5.10
2023-09-29T21:27:55.599Z,5.00
2023-09-29T21:30:23.557Z,4.53
2023-09-29T21:32:52.348Z,4.77
2023-09-29T21:35:20.371Z,5.10
2023-09-29T21:37:48.385Z,5.00
2023-09-29T21:40:16.569Z,4.70
2023-09-29T21:42:44.588Z,4.67
2023-09-29T21:45:14.348Z,5.00
2023-09-29T21:47:44.907Z,4.30
2023-09-29T21:50:12.911Z,4.43
2023-09-29T21:52:40.988Z,4.43
2023-09-29T21:55:11.138Z,4.40
2023-09-29T21:57:39.434Z,5.23
2023-09-29T22:00:20.565Z,4.57
2023-09-29T22:02:51.110Z,4.57
2023-09-29T22:05:21.137Z,4.53
2023-09-29T22:07:50.194Z,4.97
2023-09-29T22:10:18.419Z,4.60
2023-09-29T22:12:46.959Z,5.33
2023-09-29T22:15:16.632Z,5.63
2023-09-29T22:17:45.033Z,5.23
2023-09-29T22:20:15.027Z,5.17
2023-09-29T22:22:43.189Z,4.27
2023-09-29T22:25:11.815Z,4.33
2023-09-29T22:27:39.825Z,5.27
2023-09-29T22:30:08.999Z,4.13
2023-09-29T22:32:37.085Z,4.00
2023-09-29T22:35:07.447Z,4.47
2023-09-29T22:37:36.842Z,4.20
2023-09-29T22:40:05.216Z,3.50
2023-09-29T22:42:33.147Z,3.50
2023-09-29T22:45:06.067Z,4.47
2023-09-29T22:47:34.028Z,3.27
2023-09-29T22:50:04.286Z,2.73
2023-09-29T22:52:32.566Z,2.63
2023-09-29T22:55:01.952Z,2.60
2023-09-29T22:57:31.212Z,2.50
2023-09-29T23:00:00.862Z,1.80
2023-09-29T23:02:29.258Z,2.17
2023-09-29T23:04:57.363Z,2.90
2023-09-29T23:07:25.322Z,2.23
2023-09-29T23:09:53.563Z,3.97
2023-09-29T23:12:22.916Z,1.80
2023-09-29T23:14:51.740Z,2.13
2023-09-29T23:17:20.358Z,1.70
2023-09-29T23:19:48.800Z,1.70
2023-09-29T23:22:17.109Z,1.80
2023-09-29T23:24:45.192Z,1.47
2023-09-29T23:27:13.037Z,1.60
2023-09-29T23:29:42.723Z,1.20
2023-09-29T23:32:10.602Z,1.23
2023-09-29T23:34:39.898Z,1.30
2023-09-29T23:37:07.862Z,1.20
2023-09-29T23:39:36.203Z,1.40
2023-09-29T23:42:04.247Z,1.10
2023-09-29T23:44:34.123Z,1.50
2023-09-29T23:47:03.470Z,1.33
2023-09-29T23:49:31.516Z,1.50
2023-09-29T23:51:59.593Z,1.70
2023-09-29T23:54:28.531Z,1.40
2023-09-29T23:56:56.598Z,1.40
2023-09-29T23:59:24.559Z,1.50
